Time;durP1;ratioP1;P1;durP2;ratioP2;P2;SDS_P1;SDS_P2;PMS_P1;PMS_P2;Temp;Humidity;BMP_temperature;BMP_pressure;BME280_temperature;BME280_humidity;BME280_pressure;Samples;Min_cycle;Max_cycle;Signal;HPM_P1;HPM_P2
2021/01/14 00:00:21;;;;;;;4.00;3.28;;;;;;;-145.92;100.00;59847.09;1031653;28;20516;-73
2021/01/14 00:00:53;;;;;;;4.30;3.28;;;;;;;-145.92;100.00;59847.09;1035878;28;20026;-72
2021/01/14 00:01:24;;;;;;;4.35;3.63;;;;;;;-145.92;100.00;59847.09;1035873;28;20619;-72
2021/01/14 00:01:55;;;;;;;3.65;3.10;;;;;;;-145.92;100.00;59847.09;1039887;28;20294;-73
2021/01/14 00:02:26;;;;;;;4.25;3.35;;;;;;;-145.92;100.00;59847.09;1039850;28;20017;-72
2021/01/14 00:02:57;;;;;;;3.70;3.10;;;;;;;-145.92;100.00;59847.09;1031802;28;20133;-72
2021/01/14 00:03:28;;;;;;;4.82;3.42;;;;;;;-145.92;100.00;59847.09;1043751;28;20704;-73
2021/01/14 00:03:59;;;;;;;4.45;3.35;;;;;;;-145.92;100.00;59847.09;1035888;28;20022;-72
2021/01/14 00:04:30;;;;;;;4.75;3.78;;;;;;;-145.92;100.00;59847.09;1027659;28;20118;-72
2021/01/14 00:05:11;;;;;;;4.63;3.28;;;;;;;-145.92;100.00;59847.09;1027655;28;20130;-72
2021/01/14 00:05:42;;;;;;;4.00;2.88;;;;;;;-145.92;100.00;59847.09;1035827;28;20661;-72
2021/01/14 00:06:13;;;;;;;4.13;3.08;;;;;;;-145.92;100.00;59847.09;1033475;28;20260;-72
2021/01/14 00:06:44;;;;;;;3.95;3.10;;;;;;;-145.92;100.00;59847.09;1039713;28;20272;-72
2021/01/14 00:07:15;;;;;;;4.03;3.50;;;;;;;-145.92;100.00;59847.09;1035922;28;20676;-72
2021/01/14 00:07:46;;;;;;;5.07;3.35;;;;;;;-145.92;100.00;59847.09;1035891;28;20026;-72
2021/01/14 00:08:17;;;;;;;4.00;3.10;;;;;;;-145.92;100.00;59847.09;1027591;28;20038;-72
2021/01/14 00:08:48;;;;;;;4.90;3.70;;;;;;;-145.92;100.00;59847.09;1031840;28;20403;-73
2021/01/14 00:09:19;;;;;;;4.18;3.38;;;;;;;-145.92;100.00;59847.09;1035823;28;20129;-72
2021/01/14 00:09:50;;;;;;;5.05;3.47;;;;;;;-145.92;100.00;59847.09;1027742;28;20023;-73
2021/01/14 00:10:21;;;;;;;3.70;3.00;;;;;;;-145.92;100.00;59847.09;1035723;28;20525;-73
2021/01/14 00:10:52;;;;;;;4.68;3.85;;;;;;;-145.92;100.00;59847.09;1035685;28;20029;-72
2021/01/14 00:11:23;;;;;;;3.92;2.95;;;;;;;-145.92;100.00;59847.09;1031895;28;20694;-72
2021/01/14 00:11:54;;;;;;;4.18;3.10;;;;;;;-145.92;100.00;59847.09;1035880;28;20449;-72
2021/01/14 00:12:24;;;;;;;4.10;2.92;;;;;;;-145.92;100.00;59847.09;1027846;28;20034;-72
2021/01/14 00:12:55;;;;;;;4.35;2.92;;;;;;;-145.92;100.00;59847.09;1035772;28;20029;-72
2021/01/14 00:13:26;;;;;;;4.00;3.10;;;;;;;-145.92;100.00;59847.09;1039949;28;20025;-72
2021/01/14 00:13:58;;;;;;;3.50;2.65;;;;;;;-145.92;100.00;59847.09;1040008;28;20041;-72
2021/01/14 00:14:28;;;;;;;3.75;2.80;;;;;;;-145.92;100.00;59847.09;1039875;28;20112;-73
2021/01/14 00:15:00;;;;;;;4.53;3.00;;;;;;;-145.92;100.00;59847.09;1031819;28;20709;-72
2021/01/14 00:15:31;;;;;;;3.60;2.75;;;;;;;-145.92;100.00;59847.09;1039733;28;20029;-72
2021/01/14 00:16:01;;;;;;;3.50;2.65;;;;;;;-145.92;100.00;59847.09;1031681;28;20278;-72
2021/01/14 00:16:32;;;;;;;3.88;2.90;;;;;;;-145.92;100.00;59847.09;1039779;28;20089;-72
2021/01/14 00:17:03;;;;;;;3.45;2.70;;;;;;;-145.92;100.00;59847.09;1039743;28;20272;-72
2021/01/14 00:17:34;;;;;;;3.60;2.40;;;;;;;-145.92;100.00;59847.09;1035996;28;20030;-72
2021/01/14 00:18:05;;;;;;;3.28;2.40;;;;;;;-145.92;100.00;59847.09;1039880;28;20249;-72
2021/01/14 00:18:36;;;;;;;3.75;2.75;;;;;;;-145.92;100.00;59847.09;1043903;28;20031;-73
2021/01/14 00:19:07;;;;;;;4.45;3.03;;;;;;;-145.92;100.00;59847.09;1031781;28;20307;-73
2021/01/14 00:19:37;;;;;;;5.20;2.95;;;;;;;-145.92;100.00;59847.09;1035962;28;20514;-72
2021/01/14 00:20:12;;;;;;;4.00;3.05;;;;;;;-145.92;100.00;59847.09;1043969;28;20024;-72
2021/01/14 00:20:43;;;;;;;4.00;3.20;;;;;;;-145.92;100.00;59847.09;1035871;28;20033;-72
2021/01/14 00:21:13;;;;;;;3.80;2.72;;;;;;;-145.92;100.00;59847.09;1043900;28;20561;-72
2021/01/14 00:21:44;;;;;;;3.85;3.13;;;;;;;-145.92;100.00;59847.09;1039812;28;20071;-72
2021/01/14 00:22:15;;;;;;;5.35;3.20;;;;;;;-145.92;100.00;59847.09;1031793;28;20037;-73
2021/01/14 00:22:46;;;;;;;4.22;3.22;;;;;;;-145.92;100.00;59847.09;1048059;28;20028;-72
2021/01/14 00:23:16;;;;;;;4.10;2.95;;;;;;;-145.92;100.00;59847.09;1035738;28;20026;-72
2021/01/14 00:23:47;;;;;;;4.10;2.92;;;;;;;-145.92;100.00;59847.09;1039899;28;20347;-73
2021/01/14 00:24:18;;;;;;;4.18;2.83;;;;;;;-145.92;100.00;59847.09;1039867;28;20120;-73
2021/01/14 00:24:49;;;;;;;3.90;2.83;;;;;;;-145.92;100.00;59847.09;1031682;28;20097;-73
2021/01/14 00:25:20;;;;;;;3.78;2.92;;;;;;;-145.92;100.00;59847.09;1039799;28;20260;-73
2021/01/14 00:25:51;;;;;;;3.65;2.78;;;;;;;-145.92;100.00;59847.09;1044022;28;20446;-73
2021/01/14 00:26:22;;;;;;;3.67;2.78;;;;;;;-145.92;100.00;59847.09;1035818;28;20429;-72
2021/01/14 00:26:52;;;;;;;4.00;3.22;;;;;;;-145.92;100.00;59847.09;1031770;28;20519;-73
2021/01/14 00:27:24;;;;;;;3.75;2.80;;;;;;;-145.92;100.00;59847.09;1035773;28;20099;-72
2021/01/14 00:27:55;;;;;;;4.15;3.20;;;;;;;-145.92;100.00;59847.09;1027707;28;20030;-72
2021/01/14 00:28:26;;;;;;;4.38;3.10;;;;;;;-145.92;100.00;59847.09;1031736;28;20262;-72
2021/01/14 00:28:57;;;;;;;3.80;2.95;;;;;;;-145.92;100.00;59847.09;1031675;28;20031;-73
2021/01/14 00:29:29;;;;;;;3.65;2.90;;;;;;;-145.92;100.00;59847.09;1039918;28;20029;-73
2021/01/14 00:30:00;;;;;;;4.28;2.75;;;;;;;-145.92;100.00;59847.09;1035784;28;20112;-72
2021/01/14 00:30:31;;;;;;;3.53;2.65;;;;;;;-145.92;100.00;59847.09;1040481;28;20716;-72
2021/01/14 00:31:02;;;;;;;4.05;2.70;;;;;;;-145.92;100.00;59847.09;1032610;28;20344;-72
2021/01/14 00:31:33;;;;;;;3.70;2.70;;;;;;;-145.92;100.00;59847.09;1032527;28;20270;-72
2021/01/14 00:32:05;;;;;;;4.25;3.00;;;;;;;-145.92;100.00;59847.09;1036694;28;20026;-73
2021/01/14 00:32:35;;;;;;;3.60;2.55;;;;;;;-145.92;100.00;59847.09;1040786;28;20264;-72
2021/01/14 00:33:06;;;;;;;6.00;3.00;;;;;;;-145.92;100.00;59847.09;1032655;28;20761;-72
2021/01/14 00:33:37;;;;;;;4.25;3.30;;;;;;;-145.92;100.00;59847.09;1036574;28;20445;-73
2021/01/14 00:34:08;;;;;;;3.75;2.95;;;;;;;-145.92;100.00;59847.09;1040689;28;20025;-72
2021/01/14 00:34:39;;;;;;;4.65;3.00;;;;;;;-145.92;100.00;59847.09;1036663;28;20402;-72
2021/01/14 00:35:11;;;;;;;3.20;2.38;;;;;;;-145.92;100.00;59847.09;1032432;28;20261;-72
2021/01/14 00:35:41;;;;;;;3.30;2.58;;;;;;;-145.92;100.00;59847.09;1032540;28;20036;-72
2021/01/14 00:36:12;;;;;;;4.43;2.55;;;;;;;-145.92;100.00;59847.09;1036665;28;20261;-73
2021/01/14 00:38:04;;;;;;;3.70;2.72;;;;;;;-145.92;100.00;59847.09;1040717;28;20399;-72
2021/01/14 00:38:35;;;;;;;4.85;2.92;;;;;;;-145.92;100.00;59847.09;1040630;28;20256;-73
2021/01/14 00:39:06;;;;;;;3.42;2.55;;;;;;;-145.92;100.00;59847.09;1032648;28;20022;-72
2021/01/14 00:39:38;;;;;;;3.83;2.78;;;;;;;-145.92;100.00;59847.09;1044752;28;20032;-73
2021/01/14 00:40:09;;;;;;;3.40;2.50;;;;;;;-145.92;100.00;59847.09;1040688;28;20107;-72
2021/01/14 00:40:41;;;;;;;3.85;2.80;;;;;;;-145.92;100.00;59847.09;1036662;28;20765;-73
2021/01/14 00:41:12;;;;;;;3.45;2.28;;;;;;;-145.92;100.00;59847.09;1036770;28;20648;-72
2021/01/14 00:41:43;;;;;;;3.10;2.30;;;;;;;-145.92;100.00;59847.09;1032376;28;20341;-73
2021/01/14 00:42:20;;;;;;;3.60;2.55;;;;;;;-145.92;100.00;59847.09;1032494;28;20312;-73
2021/01/14 00:42:54;;;;;;;3.42;2.58;;;;;;;-145.92;100.00;59847.09;1036678;28;20446;-72
2021/01/14 00:43:25;;;;;;;3.80;2.83;;;;;;;-145.92;100.00;59847.09;1044854;28;20334;-72
2021/01/14 00:43:56;;;;;;;3.92;2.42;;;;;;;-145.92;100.00;59847.09;1040602;28;20252;-73
2021/01/14 00:44:27;;;;;;;3.80;2.80;;;;;;;-145.92;100.00;59847.09;1028476;28;20050;-73
2021/01/14 00:45:00;;;;;;;3.70;2.83;;;;;;;-145.92;100.00;59847.09;1036634;28;20113;-72
2021/01/14 00:45:32;;;;;;;3.58;2.25;;;;;;;-145.92;100.00;59847.09;1040769;28;20013;-72
2021/01/14 00:46:03;;;;;;;5.18;3.17;;;;;;;-145.92;100.00;59847.09;1032656;28;20352;-73
2021/01/14 00:46:34;;;;;;;4.95;2.92;;;;;;;-145.92;100.00;59847.09;1040699;28;20256;-73
2021/01/14 00:47:05;;;;;;;3.78;2.92;;;;;;;-145.92;100.00;59847.09;1036624;28;20745;-72
2021/01/14 00:47:36;;;;;;;3.92;2.78;;;;;;;-145.92;100.00;59847.09;1044823;28;20025;-72
2021/01/14 00:48:07;;;;;;;3.83;2.88;;;;;;;-145.92;100.00;59847.09;1040556;28;20467;-73
2021/01/14 00:48:38;;;;;;;3.53;2.70;;;;;;;-145.92;100.00;59847.09;1028587;28;20364;-72
2021/01/14 00:49:09;;;;;;;3.88;2.60;;;;;;;-145.92;100.00;59847.09;1036716;28;20324;-72
2021/01/14 00:49:40;;;;;;;4.13;3.13;;;;;;;-145.92;100.00;59847.09;1041034;28;20021;-72
2021/01/14 00:50:10;;;;;;;3.83;2.78;;;;;;;-145.92;100.00;59847.09;1032527;28;20022;-73
2021/01/14 00:50:41;;;;;;;4.00;2.80;;;;;;;-145.92;100.00;59847.09;1036675;28;20445;-72
2021/01/14 00:51:13;;;;;;;4.30;3.42;;;;;;;-145.92;100.00;59847.09;1040725;28;20033;-72
2021/01/14 00:51:44;;;;;;;4.00;3.03;;;;;;;-145.92;100.00;59847.09;1028531;28;20121;-72
2021/01/14 00:52:15;;;;;;;3.80;2.90;;;;;;;-145.92;100.00;59847.09;1040497;28;20268;-72
2021/01/14 00:52:45;;;;;;;4.50;3.28;;;;;;;-145.92;100.00;59847.09;1040677;28;20112;-72
2021/01/14 00:53:16;;;;;;;3.55;2.97;;;;;;;-145.92;100.00;59847.09;1040569;28;20021;-72
2021/01/14 00:53:47;;;;;;;4.00;3.00;;;;;;;-145.92;100.00;59847.09;1040655;28;20022;-72
2021/01/14 00:54:19;;;;;;;3.90;3.00;;;;;;;-145.92;100.00;59847.09;1036525;28;20033;-73
2021/01/14 00:54:50;;;;;;;5.13;3.90;;;;;;;-145.92;100.00;59847.09;1036590;28;20022;-72
2021/01/14 00:55:21;;;;;;;4.05;3.10;;;;;;;-145.92;100.00;59847.09;1032485;28;20399;-72
2021/01/14 00:55:53;;;;;;;4.35;3.25;;;;;;;-145.92;100.00;59847.09;1040655;28;20021;-72
2021/01/14 00:56:30;;;;;;;3.38;2.67;;;;;;;-145.92;100.00;59847.09;1040468;28;20076;-72
2021/01/14 00:57:01;;;;;;;4.18;3.05;;;;;;;-145.92;100.00;59847.09;1032630;28;20274;-72
2021/01/14 00:57:35;;;;;;;4.45;3.10;;;;;;;-145.92;100.00;59847.09;1048971;28;20269;-72
2021/01/14 00:58:05;;;;;;;4.68;3.70;;;;;;;-145.92;100.00;59847.09;1044793;28;20041;-73
2021/01/14 00:58:36;;;;;;;3.50;2.80;;;;;;;-145.92;100.00;59847.09;1044568;28;20339;-73
2021/01/14 00:59:07;;;;;;;4.40;3.13;;;;;;;-145.92;100.00;59847.09;1036676;28;20403;-72
2021/01/14 00:59:38;;;;;;;4.43;3.45;;;;;;;-145.92;100.00;59847.09;1032545;28;20022;-73
2021/01/14 01:00:12;;;;;;;4.43;3.40;;;;;;;-145.92;100.00;59847.09;1044716;28;20243;-73
2021/01/14 01:00:42;;;;;;;4.70;3.35;;;;;;;-145.92;100.00;59847.09;1032355;28;20011;-73
2021/01/14 01:01:14;;;;;;;4.18;3.28;;;;;;;-145.92;100.00;59847.09;1036433;28;20252;-73
2021/01/14 01:01:44;;;;;;;4.70;3.67;;;;;;;-145.92;100.00;59847.09;1040584;28;20088;-72
2021/01/14 01:02:15;;;;;;;4.78;3.38;;;;;;;-145.92;100.00;59847.09;1036493;28;20256;-73
2021/01/14 01:02:47;;;;;;;4.68;3.45;;;;;;;-145.92;100.00;59847.09;1040480;28;20014;-72
2021/01/14 01:03:17;;;;;;;4.40;3.47;;;;;;;-145.92;100.00;59847.09;1032287;28;20014;-73
2021/01/14 01:03:48;;;;;;;5.97;3.78;;;;;;;-145.92;100.00;59847.09;1036470;28;20245;-73
2021/01/14 01:04:19;;;;;;;4.75;3.78;;;;;;;-145.92;100.00;59847.09;1032367;28;20010;-72
2021/01/14 01:04:50;;;;;;;4.30;3.50;;;;;;;-145.92;100.00;59847.09;1036524;28;20018;-73
2021/01/14 01:05:21;;;;;;;4.75;3.33;;;;;;;-145.92;100.00;59847.09;1040520;28;20361;-72
2021/01/14 01:05:51;;;;;;;3.90;3.00;;;;;;;-145.92;100.00;59847.09;1036745;28;20025;-72
2021/01/14 01:06:23;;;;;;;4.93;3.80;;;;;;;-145.92;100.00;59847.09;1036707;28;20014;-73
2021/01/14 01:06:54;;;;;;;4.30;3.47;;;;;;;-145.92;100.00;59847.09;1032418;28;20023;-73
2021/01/14 01:07:25;;;;;;;4.63;3.63;;;;;;;-145.92;100.00;59847.09;1032485;28;20245;-72
2021/01/14 01:07:57;;;;;;;4.40;3.50;;;;;;;-145.92;100.00;59847.09;1040503;28;20010;-73
2021/01/14 01:08:28;;;;;;;4.47;3.67;;;;;;;-145.92;100.00;59847.09;1040548;28;20018;-72
2021/01/14 01:08:59;;;;;;;5.30;4.30;;;;;;;-145.92;100.00;59847.09;1040507;28;20732;-72
2021/01/14 01:09:30;;;;;;;4.95;3.90;;;;;;;-145.92;100.00;59847.09;1036565;28;20104;-72
2021/01/14 01:10:03;;;;;;;5.00;4.10;;;;;;;-145.92;100.00;59847.09;1036483;28;20261;-72
2021/01/14 01:10:34;;;;;;;5.25;4.18;;;;;;;-145.92;100.00;59847.09;1040589;28;20068;-72
2021/01/14 01:11:05;;;;;;;4.85;4.05;;;;;;;-145.92;100.00;59847.09;1040611;28;20287;-72
2021/01/14 01:11:36;;;;;;;4.80;4.30;;;;;;;-145.92;100.00;59847.09;1036671;28;20481;-72
2021/01/14 01:12:10;;;;;;;4.70;3.80;;;;;;;-145.92;100.00;59847.09;1044826;28;20017;-72
2021/01/14 01:12:41;;;;;;;4.80;3.88;;;;;;;-145.92;100.00;59847.09;1040825;28;20686;-73
2021/01/14 01:13:12;;;;;;;5.03;4.20;;;;;;;-145.92;100.00;59847.09;1032394;28;20249;-72
2021/01/14 01:13:43;;;;;;;5.22;4.00;;;;;;;-145.92;100.00;59847.09;1032610;28;20506;-72
2021/01/14 01:14:14;;;;;;;5.57;4.13;;;;;;;-145.92;100.00;59847.09;1036612;28;20025;-72
2021/01/14 01:14:44;;;;;;;4.55;3.30;;;;;;;-145.92;100.00;59847.09;1032460;28;20260;-72
2021/01/14 01:15:15;;;;;;;4.90;3.90;;;;;;;-145.92;100.00;59847.09;1040393;28;20017;-72
2021/01/14 01:15:46;;;;;;;4.60;3.60;;;;;;;-145.92;100.00;59847.09;1032196;28;20030;-72
2021/01/14 01:16:17;;;;;;;5.55;3.88;;;;;;;-145.92;100.00;59847.09;1036554;28;20022;-72
2021/01/14 01:16:48;;;;;;;4.63;3.53;;;;;;;-145.92;100.00;59847.09;1036352;28;20026;-72
2021/01/14 01:17:18;;;;;;;5.00;3.95;;;;;;;-145.92;100.00;59847.09;1036347;28;20253;-72
2021/01/14 01:17:49;;;;;;;5.25;3.90;;;;;;;-145.92;100.00;59847.09;1032436;28;20018;-73
2021/01/14 01:18:20;;;;;;;5.13;4.13;;;;;;;-145.92;100.00;59847.09;1040679;28;20380;-72
2021/01/14 01:18:50;;;;;;;3.90;3.17;;;;;;;-145.92;100.00;59847.09;1040702;28;20055;-72
2021/01/14 01:19:21;;;;;;;5.18;4.47;;;;;;;-145.92;100.00;59847.09;1040406;28;20135;-72
2021/01/14 01:19:52;;;;;;;4.70;3.85;;;;;;;-145.92;100.00;59847.09;1036742;28;20064;-72
2021/01/14 01:20:23;;;;;;;4.28;3.30;;;;;;;-145.92;100.00;59847.09;1040612;28;20131;-72
2021/01/14 01:20:53;;;;;;;4.28;3.28;;;;;;;-145.92;100.00;59847.09;1032592;28;20011;-72
2021/01/14 01:21:24;;;;;;;4.38;3.63;;;;;;;-145.92;100.00;59847.09;1040501;28;20014;-72
2021/01/14 01:21:55;;;;;;;4.75;3.85;;;;;;;-145.92;100.00;59847.09;1032572;28;20354;-72
2021/01/14 01:22:26;;;;;;;4.93;3.67;;;;;;;-145.92;100.00;59847.09;1032348;28;20070;-72
2021/01/14 01:22:57;;;;;;;5.78;3.78;;;;;;;-145.92;100.00;59847.09;1040652;28;20264;-73
2021/01/14 01:23:29;;;;;;;5.63;4.28;;;;;;;-145.92;100.00;59847.09;1036317;28;20261;-72
2021/01/14 01:24:00;;;;;;;5.10;3.80;;;;;;;-145.92;100.00;59847.09;1036490;28;20014;-73
2021/01/14 01:24:31;;;;;;;5.38;3.63;;;;;;;-145.92;100.00;59847.09;1044677;28;20243;-73
2021/01/14 01:25:01;;;;;;;4.82;3.58;;;;;;;-145.92;100.00;59847.09;1040680;28;20516;-72
2021/01/14 01:25:32;;;;;;;4.40;3.22;;;;;;;-145.92;100.00;59847.09;1036321;28;20014;-72
2021/01/14 01:26:03;;;;;;;3.65;2.85;;;;;;;-145.92;100.00;59847.09;1040554;28;20017;-72
2021/01/14 01:26:34;;;;;;;3.58;2.60;;;;;;;-145.92;100.00;59847.09;1036401;28;20065;-72
2021/01/14 01:27:05;;;;;;;3.92;2.75;;;;;;;-145.92;100.00;59847.09;1036493;28;20332;-72
2021/01/14 01:27:37;;;;;;;4.28;3.03;;;;;;;-145.92;100.00;59847.09;1036310;28;20018;-73
2021/01/14 01:28:08;;;;;;;4.10;3.00;;;;;;;-145.92;100.00;59847.09;1036366;28;20014;-72
2021/01/14 01:28:38;;;;;;;3.40;2.55;;;;;;;-145.92;100.00;59847.09;1028510;28;20553;-72
2021/01/14 01:29:09;;;;;;;3.70;2.63;;;;;;;-145.92;100.00;59847.09;1040476;28;20009;-72
2021/01/14 01:29:40;;;;;;;3.25;2.42;;;;;;;-145.92;100.00;59847.09;1024355;28;20172;-72
2021/01/14 01:30:12;;;;;;;3.75;2.70;;;;;;;-145.92;100.00;59847.09;1032421;28;20165;-72
2021/01/14 01:30:42;;;;;;;3.70;2.75;;;;;;;-145.92;100.00;59847.09;1032395;28;20345;-73
2021/01/14 01:31:14;;;;;;;3.33;2.20;;;;;;;-145.92;100.00;59847.09;1040594;28;20256;-72
2021/01/14 01:31:45;;;;;;;3.50;2.40;;;;;;;-145.92;100.00;59847.09;1036336;28;20347;-73
2021/01/14 01:32:16;;;;;;;3.83;2.58;;;;;;;-145.92;100.00;59847.09;1036234;28;20784;-73
2021/01/14 01:32:47;;;;;;;3.10;2.05;;;;;;;-145.92;100.00;59847.09;1032309;28;20472;-72
2021/01/14 01:33:18;;;;;;;3.67;2.35;;;;;;;-145.92;100.00;59847.09;1028331;28;20025;-72
2021/01/14 01:33:49;;;;;;;3.30;2.40;;;;;;;-145.92;100.00;59847.09;1040370;28;20431;-73
2021/01/14 01:34:19;;;;;;;3.47;2.22;;;;;;;-145.92;100.00;59847.09;1040513;28;20025;-72
2021/01/14 01:34:51;;;;;;;3.40;2.30;;;;;;;-145.92;100.00;59847.09;1040573;28;20019;-72
2021/01/14 01:35:22;;;;;;;3.30;2.30;;;;;;;-145.92;100.00;59847.09;1036236;28;20038;-72
2021/01/14 01:35:53;;;;;;;2.90;2.00;;;;;;;-145.92;100.00;59847.09;1044455;28;20271;-73
2021/01/14 01:36:24;;;;;;;3.58;2.28;;;;;;;-145.92;100.00;59847.09;1036338;28;20439;-73
2021/01/14 01:36:54;;;;;;;3.30;2.30;;;;;;;-145.92;100.00;59847.09;1036205;28;20312;-72
2021/01/14 01:37:25;;;;;;;3.28;2.25;;;;;;;-145.92;100.00;59847.09;1032219;28;20069;-72
2021/01/14 01:37:56;;;;;;;3.47;2.35;;;;;;;-145.92;100.00;59847.09;1036206;28;20482;-72
2021/01/14 01:38:27;;;;;;;3.70;2.50;;;;;;;-145.92;100.00;59847.09;1036225;28;20104;-72
2021/01/14 01:38:58;;;;;;;3.30;2.20;;;;;;;-145.92;100.00;59847.09;1040458;28;20112;-72
2021/01/14 01:39:29;;;;;;;3.28;2.35;;;;;;;-145.92;100.00;59847.09;1040468;28;20108;-72
2021/01/14 01:39:59;;;;;;;3.35;2.20;;;;;;;-145.92;100.00;59847.09;1036207;28;20742;-72
2021/01/14 01:40:30;;;;;;;4.18;2.42;;;;;;;-145.92;100.00;59847.09;1040437;28;20079;-72
2021/01/14 01:41:01;;;;;;;3.65;2.30;;;;;;;-145.92;100.00;59847.09;1032216;28;20025;-72
2021/01/14 01:41:32;;;;;;;3.67;2.17;;;;;;;-145.92;100.00;59847.09;1032374;28;20040;-72
2021/01/14 01:42:04;;;;;;;3.30;2.22;;;;;;;-145.92;100.00;59847.09;1035793;28;20067;-73
2021/01/14 01:42:35;;;;;;;3.83;2.40;;;;;;;-145.92;100.00;59847.09;1044236;28;20259;-72
2021/01/14 01:43:06;;;;;;;3.65;2.17;;;;;;;-145.92;100.00;59847.09;1040337;28;20252;-73
2021/01/14 01:43:37;;;;;;;3.45;2.40;;;;;;;-145.92;100.00;59847.09;1044510;28;20244;-72
2021/01/14 01:44:08;;;;;;;3.70;2.50;;;;;;;-145.92;100.00;59847.09;1036257;28;20378;-73
2021/01/14 01:44:39;;;;;;;3.42;2.33;;;;;;;-145.92;100.00;59847.09;1032342;28;20113;-72
2021/01/14 01:45:11;;;;;;;3.30;2.20;;;;;;;-145.92;100.00;59847.09;1040358;28;20405;-73
2021/01/14 01:45:43;;;;;;;3.00;2.00;;;;;;;-145.92;100.00;59847.09;1040524;28;20322;-72
2021/01/14 01:46:26;;;;;;;3.40;2.20;;;;;;;-145.92;100.00;59847.09;1036091;28;20264;-73
2021/01/14 01:47:05;;;;;;;2.88;1.98;;;;;;;-145.92;100.00;59847.09;1040475;28;20260;-73
2021/01/14 01:47:37;;;;;;;3.25;2.13;;;;;;;-145.92;100.00;59847.09;1040449;28;20248;-72
2021/01/14 01:48:08;;;;;;;3.95;2.30;;;;;;;-145.92;100.00;59847.09;1040314;28;20314;-72
2021/01/14 01:48:39;;;;;;;3.88;2.20;;;;;;;-145.92;100.00;59847.09;1044439;28;20291;-73
2021/01/14 01:49:09;;;;;;;3.45;2.22;;;;;;;-145.92;100.00;59847.09;1040284;28;20249;-73
2021/01/14 01:49:41;;;;;;;3.20;2.17;;;;;;;-145.92;100.00;59847.09;1028311;28;20109;-72
2021/01/14 01:50:12;;;;;;;3.40;2.42;;;;;;;-145.92;100.00;59847.09;1032411;28;20105;-73
2021/01/14 01:50:44;;;;;;;3.65;2.10;;;;;;;-145.92;100.00;59847.09;1044474;28;20340;-72
2021/01/14 01:51:15;;;;;;;3.58;2.53;;;;;;;-145.92;100.00;59847.09;1036328;28;20289;-72
2021/01/14 01:51:46;;;;;;;3.55;2.33;;;;;;;-145.92;100.00;59847.09;1044508;28;20259;-72
2021/01/14 01:52:17;;;;;;;3.65;2.50;;;;;;;-145.92;100.00;59847.09;1044353;28;20025;-73
2021/01/14 01:52:48;;;;;;;3.83;2.50;;;;;;;-145.92;100.00;59847.09;1036206;28;20479;-72
2021/01/14 01:53:19;;;;;;;3.38;2.40;;;;;;;-145.92;100.00;59847.09;1036331;28;20022;-72
2021/01/14 01:53:50;;;;;;;3.45;2.47;;;;;;;-145.92;100.00;59847.09;1044483;28;20300;-72
2021/01/14 01:54:21;;;;;;;3.72;2.70;;;;;;;-145.92;100.00;59847.09;1036247;28;20112;-73
2021/01/14 01:54:52;;;;;;;3.80;2.35;;;;;;;-145.92;100.00;59847.09;1040267;28;20091;-72
2021/01/14 01:55:22;;;;;;;4.30;2.60;;;;;;;-145.92;100.00;59847.09;1040336;28;20029;-72
2021/01/14 01:55:53;;;;;;;3.80;2.60;;;;;;;-145.92;100.00;59847.09;1032247;28;20498;-72
2021/01/14 01:56:24;;;;;;;4.50;2.75;;;;;;;-145.92;100.00;59847.09;1044394;28;20044;-73
2021/01/14 01:56:55;;;;;;;4.65;2.80;;;;;;;-145.92;100.00;59847.09;1036026;28;20260;-72
2021/01/14 01:57:26;;;;;;;3.53;2.50;;;;;;;-145.92;100.00;59847.09;1040299;28;20042;-73
2021/01/14 01:57:57;;;;;;;5.10;3.53;;;;;;;-145.92;100.00;59847.09;1036306;28;20037;-72
2021/01/14 01:58:28;;;;;;;4.78;3.25;;;;;;;-145.92;100.00;59847.09;1036362;28;20024;-72
2021/01/14 01:58:59;;;;;;;3.80;2.70;;;;;;;-145.92;100.00;59847.09;1036146;28;20073;-72
2021/01/14 01:59:32;;;;;;;4.03;3.10;;;;;;;-145.92;100.00;59847.09;1044455;28;20291;-73
2021/01/14 02:00:04;;;;;;;3.78;2.97;;;;;;;-145.92;100.00;59847.09;1036356;28;20602;-72
2021/01/14 02:00:35;;;;;;;3.80;3.15;;;;;;;-145.92;100.00;59847.09;1032276;28;20258;-73
2021/01/14 02:01:07;;;;;;;3.75;3.13;;;;;;;-145.92;100.00;59847.09;1040194;28;20288;-72
2021/01/14 02:01:38;;;;;;;4.32;3.50;;;;;;;-145.92;100.00;59847.09;1044653;28;20028;-72
2021/01/14 02:02:19;;;;;;;4.28;3.38;;;;;;;-145.92;100.00;59847.09;1040277;28;20248;-73
2021/01/14 02:02:52;;;;;;;4.05;3.35;;;;;;;-145.92;100.00;59847.09;1032108;28;20026;-73
2021/01/14 02:03:22;;;;;;;4.07;3.15;;;;;;;-145.92;100.00;59847.09;1035816;28;20257;-73
2021/01/14 02:03:53;;;;;;;4.68;3.67;;;;;;;-145.92;100.00;59847.09;1040143;28;20292;-73
2021/01/14 02:04:24;;;;;;;4.22;3.38;;;;;;;-145.92;100.00;59847.09;1040318;28;20030;-73
2021/01/14 02:04:55;;;;;;;4.03;3.40;;;;;;;-145.92;100.00;59847.09;1028022;28;20029;-73
2021/01/14 02:05:27;;;;;;;4.57;3.63;;;;;;;-145.92;100.00;59847.09;1032118;28;20023;-72
2021/01/14 02:05:58;;;;;;;4.47;3.38;;;;;;;-145.92;100.00;59847.09;1032427;28;20260;-73
2021/01/14 02:06:29;;;;;;;4.35;3.70;;;;;;;-145.92;100.00;59847.09;1036151;28;20796;-72
2021/01/14 02:07:03;;;;;;;4.40;3.28;;;;;;;-145.92;100.00;59847.09;1036082;28;20022;-73
2021/01/14 02:07:36;;;;;;;4.40;3.67;;;;;;;-145.92;100.00;59847.09;1040225;28;20401;-73
2021/01/14 02:08:16;;;;;;;4.22;3.53;;;;;;;-145.92;100.00;59847.09;1036255;28;20268;-73
2021/01/14 02:08:48;;;;;;;;;;;;;;;-145.92;100.00;59847.09;1032521;28;20268;-73
2021/01/14 02:09:19;;;;;;;5.05;3.70;;;;;;;-145.92;100.00;59847.09;1031977;28;19905;-73
2021/01/14 02:09:50;;;;;;;3.88;3.33;;;;;;;-145.92;100.00;59847.09;1036308;28;21111;-73
2021/01/14 02:10:28;;;;;;;4.32;3.30;;;;;;;-145.92;100.00;59847.09;1044448;28;20489;-72
2021/01/14 02:11:03;;;;;;;4.57;3.67;;;;;;;-145.92;100.00;59847.09;1036161;28;20509;-72
2021/01/14 02:11:37;;;;;;;4.55;3.75;;;;;;;-145.92;100.00;59847.09;1036084;28;20264;-72
2021/01/14 02:12:09;;;;;;;4.60;3.70;;;;;;;-145.92;100.00;59847.09;1040324;28;20345;-72
2021/01/14 02:12:45;;;;;;;4.28;3.65;;;;;;;-145.92;100.00;59847.09;1032150;28;20358;-73
2021/01/14 02:13:34;;;;;;;4.72;3.75;;;;;;;-145.92;100.00;59847.09;1035918;28;20265;-72
2021/01/14 02:14:18;;;;;;;4.55;3.67;;;;;;;-145.92;100.00;59847.09;1036137;28;20260;-72
2021/01/14 02:14:51;;;;;;;4.80;3.60;;;;;;;-145.92;100.00;59847.09;1040231;28;20291;-72
2021/01/14 02:15:22;;;;;;;5.53;3.70;;;;;;;-145.92;100.00;59847.09;1040095;28;20343;-72
2021/01/14 02:15:52;;;;;;;4.60;3.60;;;;;;;-145.92;100.00;59847.09;1031856;28;20254;-72
2021/01/14 02:16:23;;;;;;;5.50;4.07;;;;;;;-145.92;100.00;59847.09;1036029;28;20514;-72
2021/01/14 02:16:54;;;;;;;4.68;4.13;;;;;;;-145.92;100.00;59847.09;1031970;28;20040;-72
2021/01/14 02:17:26;;;;;;;4.82;4.00;;;;;;;-145.92;100.00;59847.09;1040096;28;20433;-72
2021/01/14 02:17:57;;;;;;;4.63;3.65;;;;;;;-145.92;100.00;59847.09;1036166;28;20128;-72
2021/01/14 02:18:29;;;;;;;3.95;3.22;;;;;;;-145.92;100.00;59847.09;1036084;28;20764;-72
2021/01/14 02:19:00;;;;;;;4.72;3.65;;;;;;;-145.92;100.00;59847.09;1036143;28;20332;-72
2021/01/14 02:19:38;;;;;;;4.40;3.67;;;;;;;-145.92;100.00;59847.09;1040051;28;20255;-72
2021/01/14 02:20:12;;;;;;;4.50;3.38;;;;;;;-145.92;100.00;59847.09;1040237;28;20018;-72
2021/01/14 02:20:43;;;;;;;4.88;3.90;;;;;;;-145.92;100.00;59847.09;1040423;28;20252;-72
2021/01/14 02:21:14;;;;;;;4.00;3.40;;;;;;;-145.92;100.00;59847.09;1032068;28;20249;-72
2021/01/14 02:21:46;;;;;;;4.53;3.72;;;;;;;-145.92;100.00;59847.09;1031952;28;20033;-73
2021/01/14 02:22:20;;;;;;;4.78;3.42;;;;;;;-145.92;100.00;59847.09;1040232;28;20022;-73
2021/01/14 02:22:57;;;;;;;4.53;3.65;;;;;;;-145.92;100.00;59847.09;1032205;28;20333;-72
2021/01/14 02:23:36;;;;;;;4.43;3.65;;;;;;;-145.92;100.00;59847.09;1028135;28;20329;-72
2021/01/14 02:24:09;;;;;;;4.95;3.95;;;;;;;-145.92;100.00;59847.09;1040113;28;20364;-73
2021/01/14 02:24:46;;;;;;;4.55;3.75;;;;;;;-145.92;100.00;59847.09;1036123;28;20755;-73
2021/01/14 02:25:20;;;;;;;4.35;3.55;;;;;;;-145.92;100.00;59847.09;1040139;28;20264;-72